Time;durP1;ratioP1;P1;durP2;ratioP2;P2;SDS_P1;SDS_P2;PMS_P1;PMS_P2;Temp;Humidity;BMP_temperature;BMP_pressure;BME280_temperature;BME280_humidity;BME280_pressure;Samples;Min_cycle;Max_cycle;Signal;HPM_P1;HPM_P2
2022/03/20 00:00:15;;;;;;;;;;;;;;;0.75;50.87;103766.01;1686569;84;20199;-70
2022/03/20 00:02:44;;;;;;;;;;;;;;;0.69;50.69;103769.75;1694291;83;20164;-71
2022/03/20 00:05:10;;;;;;;;;;;;;;;0.60;50.61;103773.38;1686605;83;20396;-71
2022/03/20 00:07:37;;;;;;;;;;;;;;;0.51;50.79;103772.72;1698058;83;20173;-70
2022/03/20 00:10:05;;;;;;;;;;;;;;;0.44;51.28;103770.48;1702724;83;20182;-70
2022/03/20 00:12:31;;;;;;;;;;;;;;;0.40;51.00;103770.13;1715324;83;20218;-71
2022/03/20 00:14:57;;;;;;;;;;;;;;;0.38;51.62;103774.22;1705549;82;20236;-71
2022/03/20 00:17:23;;;;;;;;;;;;;;;0.33;51.53;103776.41;1692986;83;20199;-71
2022/03/20 00:19:49;;;;;;;;;;;;;;;0.28;51.36;103773.91;1686108;84;20766;-71
2022/03/20 00:22:16;;;;;;;;;;;;;;;0.25;51.47;103777.10;1707488;83;20178;-71
2022/03/20 00:24:43;;;;;;;;;;;;;;;0.23;51.56;103773.55;1686887;82;20176;-71
2022/03/20 00:27:12;;;;;;;;;;;;;;;0.20;51.43;103774.59;1688841;84;20488;-71
2022/03/20 00:29:38;;;;;;;;;;;;;;;0.16;51.47;103770.42;1696672;83;20130;-70
2022/03/20 00:32:05;;;;;;;;;;;;;;;0.10;51.47;103772.48;1688866;84;20094;-70
2022/03/20 00:34:33;;;;;;;;;;;;;;;0.04;51.34;103767.81;1689642;83;20097;-71
2022/03/20 00:36:59;;;;;;;;;;;;;;;-0.03;51.70;103771.57;1700638;83;20220;-71
2022/03/20 00:39:25;;;;;;;;;;;;;;;-0.06;51.97;103770.06;1686576;85;20184;-71
2022/03/20 00:41:51;;;;;;;;;;;;;;;-0.06;52.14;103763.70;1686353;84;20279;-71
2022/03/20 00:44:17;;;;;;;;;;;;;;;-0.07;51.87;103764.85;1691770;83;20339;-71
2022/03/20 00:46:43;;;;;;;;;;;;;;;-0.09;52.16;103766.39;1698941;83;20184;-71
2022/03/20 00:49:10;;;;;;;;;;;;;;;-0.13;52.34;103761.83;1686447;84;20213;-70
2022/03/20 00:51:36;;;;;;;;;;;;;;;-0.15;52.34;103764.26;1692271;83;20227;-70
2022/03/20 00:54:10;;;;;;;;;;;;;;;-0.17;52.12;103767.45;1695324;84;20210;-71
2022/03/20 00:56:37;;;;;;;;;;;;;;;-0.18;52.33;103761.86;1687783;83;20212;-70
2022/03/20 00:59:03;;;;;;;;;;;;;;;-0.20;52.35;103756.65;1702722;83;20194;-71
2022/03/20 01:01:29;;;;;;;;;;;;;;;-0.21;52.50;103760.34;1714945;83;20158;-70
2022/03/20 01:03:56;;;;;;;;;;;;;;;-0.22;52.54;103763.27;1694060;82;20213;-71
2022/03/20 01:06:22;;;;;;;;;;;;;;;-0.23;52.43;103758.06;1686824;83;20310;-71
2022/03/20 01:08:49;;;;;;;;;;;;;;;-0.23;52.53;103757.68;1687556;83;20359;-71
2022/03/20 01:11:17;;;;;;;;;;;;;;;-0.23;52.65;103757.68;1707646;83;20134;-71
2022/03/20 01:13:43;;;;;;;;;;;;;;;-0.24;52.59;103766.08;1726028;82;20244;-71
2022/03/20 01:16:09;;;;;;;;;;;;;;;-0.27;52.68;103759.86;1716264;82;20191;-71
2022/03/20 01:18:41;;;;;;;;;;;;;;;-0.28;52.77;103757.70;1686561;83;20269;-70
2022/03/20 01:21:07;;;;;;;;;;;;;;;-0.27;53.19;103754.78;1686649;84;20477;-71
2022/03/20 01:23:34;;;;;;;;;;;;;;;-0.29;53.25;103757.20;1654871;85;20202;-71
2022/03/20 01:26:00;;;;;;;;;;;;;;;-0.31;52.95;103754.92;1613871;87;20548;-71
2022/03/20 01:28:26;;;;;;;;;;;;;;;-0.28;53.06;103758.98;1598636;89;20158;-71
2022/03/20 01:30:53;;;;;;;;;;;;;;;-0.26;52.99;103748.92;1601155;88;20242;-71
2022/03/20 01:33:19;;;;;;;;;;;;;;;-0.25;53.30;103751.97;1610370;89;20194;-71
2022/03/20 01:35:45;;;;;;;;;;;;;;;-0.26;53.18;103756.55;1604670;87;20270;-70
2022/03/20 01:38:15;;;;;;;;;;;;;;;-0.26;53.17;103753.62;1641695;86;20205;-71
2022/03/20 01:40:38;;;;;;;;;;;;;;;-0.28;53.14;103753.00;1610316;88;20235;-71
2022/03/20 01:43:04;;;;;;;;;;;;;;;-0.30;53.35;103757.08;1608524;87;20292;-71
2022/03/20 01:45:30;;;;;;;;;;;;;;;-0.30;53.40;103749.45;1587954;88;20199;-71
2022/03/20 01:47:56;;;;;;;;;;;;;;;-0.31;53.34;103750.22;1619236;87;20197;-71
2022/03/20 01:50:27;;;;;;;;;;;;;;;-0.31;53.23;103746.41;1585012;89;20252;-71
2022/03/20 01:52:54;;;;;;;;;;;;;;;-0.33;53.52;103743.75;1588650;89;20189;-71
2022/03/20 01:55:21;;;;;;;;;;;;;;;-0.32;53.39;103747.17;1610852;88;20227;-71
2022/03/20 01:57:49;;;;;;;;;;;;;;;-0.35;53.55;103744.01;1610670;88;20238;-70
2022/03/20 02:00:17;;;;;;;;;;;;;;;-0.37;53.50;103740.07;1606665;88;20212;-71
2022/03/20 02:02:44;;;;;;;;;;;;;;;-0.39;53.65;103739.45;1584962;89;20161;-70
2022/03/20 02:05:10;;;;;;;;;;;;;;;-0.39;53.78;103741.61;1585613;89;20156;-70
2022/03/20 02:07:38;;;;;;;;;;;;;;;-0.39;53.66;103734.36;1585152;89;20237;-70
2022/03/20 02:10:05;;;;;;;;;;;;;;;-0.38;53.87;103737.41;1592688;89;20124;-70
2022/03/20 02:12:31;;;;;;;;;;;;;;;-0.40;53.62;103735.13;1609423;88;20549;-70
2022/03/20 02:15:01;;;;;;;;;;;;;;;-0.41;53.76;103740.98;1604605;89;20130;-70
2022/03/20 02:17:30;;;;;;;;;;;;;;;-0.43;53.73;103738.31;1611134;88;20166;-70
2022/03/20 02:19:57;;;;;;;;;;;;;;;-0.47;53.61;103730.33;1637000;86;20233;-70
2022/03/20 02:22:24;;;;;;;;;;;;;;;-0.55;53.96;103728.88;1624850;86;20192;-70
2022/03/20 02:24:51;;;;;;;;;;;;;;;-0.59;53.99;103731.94;1664822;85;20120;-70
2022/03/20 02:27:19;;;;;;;;;;;;;;;-0.62;54.02;103724.06;1645974;87;21741;-70
2022/03/20 02:29:57;;;;;;;;;;;;;;;-0.64;53.97;103720.52;1672954;85;20247;-71
2022/03/20 02:32:30;;;;;;;;;;;;;;;-0.67;53.92;103719.51;1646906;87;20195;-70
2022/03/20 02:35:00;;;;;;;;;;;;;;;-0.70;54.01;103724.34;1647918;86;20235;-71
2022/03/20 02:37:28;;;;;;;;;;;;;;;-0.73;54.08;103721.94;1652975;85;20198;-71
2022/03/20 02:39:55;;;;;;;;;;;;;;;-0.76;54.00;103721.31;1645114;87;20251;-71
2022/03/20 02:42:23;;;;;;;;;;;;;;;-0.75;54.09;103719.66;1644971;87;20211;-70
2022/03/20 02:45:07;;;;;;;;;;;;;;;-0.77;54.12;103717.00;1623352;87;20191;-70
2022/03/20 02:47:35;;;;;;;;;;;;;;;-0.78;54.25;103712.69;1649949;85;20194;-71
2022/03/20 02:50:04;;;;;;;;;;;;;;;-0.80;54.22;103714.22;1621739;88;20591;-70
2022/03/20 02:52:46;;;;;;;;;;;;;;;-0.82;54.28;103717.39;1646129;85;20187;-70
2022/03/20 02:55:13;;;;;;;;;;;;;;;-0.83;54.19;103717.78;1664803;85;20215;-70
2022/03/20 02:57:40;;;;;;;;;;;;;;;-0.85;54.13;103718.04;1647447;86;20152;-70
2022/03/20 03:00:08;;;;;;;;;;;;;;;-0.86;54.41;103709.91;1650742;85;20226;-71
2022/03/20 03:02:36;;;;;;;;;;;;;;;-0.87;54.37;103708.14;1621379;88;20210;-70
2022/03/20 03:05:03;;;;;;;;;;;;;;;-0.89;54.37;103710.94;1645907;86;20186;-70
2022/03/20 03:07:30;;;;;;;;;;;;;;;-0.91;54.44;103708.66;1621227;87;20205;-70
2022/03/20 03:12:41;;;;;;;;;;;;;;;-0.93;54.41;103703.84;1623886;87;20222;-70
2022/03/20 03:15:20;;;;;;;;;;;;;;;-0.92;54.52;103703.07;1645252;86;20174;-70
2022/03/20 03:17:49;;;;;;;;;;;;;;;-0.93;54.52;103706.38;1624191;87;20248;-70
2022/03/20 03:20:17;;;;;;;;;;;;;;;-0.93;54.56;103703.84;1648001;85;20484;-70
2022/03/20 03:22:43;;;;;;;;;;;;;;;-0.94;54.56;103704.98;1621548;88;20193;-71
2022/03/20 03:25:09;;;;;;;;;;;;;;;-0.96;54.63;103705.24;1644932;87;20717;-71
2022/03/20 03:27:34;;;;;;;;;;;;;;;-0.98;54.58;103703.84;1634406;87;20198;-70
2022/03/20 03:30:03;;;;;;;;;;;;;;;-0.98;54.68;103706.77;1661514;85;20166;-70
2022/03/20 03:32:30;;;;;;;;;;;;;;;-0.99;54.48;103709.69;1621179;87;20165;-71
2022/03/20 03:37:40;;;;;;;;;;;;;;;-1.02;54.80;103718.34;1620351;87;20328;-71
2022/03/20 03:40:09;;;;;;;;;;;;;;;-1.05;54.71;103716.47;1671687;85;20195;-71
2022/03/20 03:42:36;;;;;;;;;;;;;;;-1.08;54.77;103716.22;1658685;85;20138;-71
2022/03/20 03:45:03;;;;;;;;;;;;;;;-1.09;54.90;103717.36;1622699;88;20139;-71
2022/03/20 03:47:29;;;;;;;;;;;;;;;-1.11;54.98;103717.63;1662933;85;20217;-70
2022/03/20 03:49:55;;;;;;;;;;;;;;;-1.14;54.93;103715.72;1636416;87;20277;-70
2022/03/20 03:52:21;;;;;;;;;;;;;;;-1.15;54.93;103715.22;1651413;85;20181;-71
2022/03/20 03:54:47;;;;;;;;;;;;;;;-1.15;54.90;103720.30;1620586;88;20879;-71
2022/03/20 03:57:13;;;;;;;;;;;;;;;-1.16;54.95;103723.59;1645229;86;20363;-71
2022/03/20 03:59:39;;;;;;;;;;;;;;;-1.17;55.00;103718.39;1626481;87;20219;-71
2022/03/20 04:02:05;;;;;;;;;;;;;;;-1.16;54.90;103721.44;1651602;85;20174;-71
2022/03/20 04:04:31;;;;;;;;;;;;;;;-1.15;55.01;103721.94;1622299;87;20174;-70
2022/03/20 04:06:57;;;;;;;;;;;;;;;-1.17;55.07;103717.13;1647301;86;20135;-70
2022/03/20 04:09:24;;;;;;;;;;;;;;;-1.18;55.07;103716.62;1633097;87;20904;-71
2022/03/20 04:11:51;;;;;;;;;;;;;;;-1.20;55.05;103717.77;1672479;85;20152;-71
2022/03/20 04:14:17;;;;;;;;;;;;;;;-1.19;55.16;103717.38;1624732;87;20144;-70
2022/03/20 04:16:44;;;;;;;;;;;;;;;-1.21;55.09;103713.83;1663200;85;20362;-71
2022/03/20 04:19:10;;;;;;;;;;;;;;;-1.21;55.12;103714.72;1646994;87;20204;-70
2022/03/20 04:21:37;;;;;;;;;;;;;;;-1.22;55.12;103710.78;1657070;85;20648;-70
2022/03/20 04:24:03;;;;;;;;;;;;;;;-1.24;55.17;103713.20;1619357;88;20130;-70
2022/03/20 04:26:29;;;;;;;;;;;;;;;-1.25;55.18;103706.72;1704414;83;20198;-71
2022/03/20 04:28:55;;;;;;;;;;;;;;;-1.26;55.24;103705.84;1688291;82;20177;-71
2022/03/20 04:31:21;;;;;;;;;;;;;;;-1.26;55.25;103715.10;1701592;83;20135;-70
2022/03/20 04:33:51;;;;;;;;;;;;;;;-1.27;55.17;103710.79;1702274;83;20558;-70
2022/03/20 04:36:21;;;;;;;;;;;;;;;-1.28;55.17;103712.82;1717520;83;20525;-71
2022/03/20 04:38:46;;;;;;;;;;;;;;;-1.29;55.29;103717.39;1715678;83;20463;-71
2022/03/20 04:41:11;;;;;;;;;;;;;;;-1.31;55.27;103721.07;1715496;82;20229;-71
2022/03/20 04:43:37;;;;;;;;;;;;;;;-1.29;55.40;103728.81;1693621;82;136267;-70
2022/03/20 04:46:03;;;;;;;;;;;;;;;-1.29;55.22;103727.55;1697391;83;20832;-70
2022/03/20 04:59:37;;;;;;;;;;;;;;;-1.42;55.27;103725.27;1693510;83;20456;-70
2022/03/20 05:02:04;;;;;;;;;;;;;;;-1.42;55.45;103729.07;1686690;84;20965;-70
2022/03/20 05:04:29;;;;;;;;;;;;;;;-1.42;55.35;103731.61;1693320;83;20177;-70
2022/03/20 05:06:56;;;;;;;;;;;;;;;-1.42;55.57;103731.98;1686803;83;20902;-71
2022/03/20 05:14:50;;;;;;;;;;;;;;;-1.40;55.56;103736.81;1686605;83;20355;-71
2022/03/20 05:17:16;;;;;;;;;;;;;;;-1.42;55.59;103734.14;1711950;82;20798;-70
2022/03/20 05:19:42;;;;;;;;;;;;;;;-1.42;55.67;103737.06;1710392;82;20800;-71
2022/03/20 05:22:12;;;;;;;;;;;;;;;-1.44;55.65;103732.24;1714831;82;20785;-71
2022/03/20 05:24:39;;;;;;;;;;;;;;;-1.46;55.64;103740.11;1714264;82;20282;-70
2022/03/20 05:27:06;;;;;;;;;;;;;;;-1.49;55.75;103739.48;1718884;82;20182;-70
2022/03/20 05:29:32;;;;;;;;;;;;;;;-1.50;55.77;103738.97;1724833;81;20105;-71
2022/03/20 05:32:00;;;;;;;;;;;;;;;-1.49;55.78;103746.20;1717300;82;20127;-71
2022/03/20 05:34:26;;;;;;;;;;;;;;;-1.50;55.74;103746.58;1712115;82;20525;-71
2022/03/20 05:36:52;;;;;;;;;;;;;;;-1.51;55.88;103743.53;1708190;82;20554;-71
2022/03/20 05:39:18;;;;;;;;;;;;;;;-1.48;55.96;103749.24;1712245;83;20880;-70
2022/03/20 05:41:47;;;;;;;;;;;;;;;-1.43;55.96;103756.86;1712144;82;20095;-71
2022/03/20 05:44:22;;;;;;;;;;;;;;;-1.36;56.01;103755.34;1705694;82;20128;-71
2022/03/20 05:46:49;;;;;;;;;;;;;;;-1.28;56.12;103756.86;1707837;83;20103;-70
2022/03/20 05:49:18;;;;;;;;;;;;;;;-1.14;56.08;103764.34;1706898;82;20527;-71
2022/03/20 05:51:46;;;;;;;;;;;;;;;-1.00;56.22;103767.59;1722082;81;20529;-70
2022/03/20 05:54:12;;;;;;;;;;;;;;;-0.85;56.18;103772.66;1710232;82;20100;-70
2022/03/20 05:59:22;;;;;;;;;;;;;;;-0.68;56.10;103773.63;1705921;83;20158;-71
2022/03/20 06:01:50;;;;;;;;;;;;;;;-0.53;56.20;103775.63;1711963;83;20455;-71
2022/03/20 06:04:16;;;;;;;;;;;;;;;-0.39;56.27;103775.92;1703656;82;20538;-71
2022/03/20 06:06:42;;;;;;;;;;;;;;;-0.20;56.24;103778.27;1714822;82;20111;-71
2022/03/20 06:09:09;;;;;;;;;;;;;;;0.04;56.13;103777.98;1709940;81;20193;-71
2022/03/20 06:11:35;;;;;;;;;;;;;;;0.32;56.28;103773.37;1699583;81;20567;-71
2022/03/20 06:14:03;;;;;;;;;;;;;;;0.60;56.26;103775.92;1705140;83;20225;-71
2022/03/20 06:16:34;;;;;;;;;;;;;;;0.93;56.38;103772.85;1706340;82;20114;-71
2022/03/20 06:19:00;;;;;;;;;;;;;;;1.24;56.25;103770.47;1702993;82;20146;-71
2022/03/20 06:21:27;;;;;;;;;;;;;;;1.54;56.03;103768.36;1699837;82;20580;-71
2022/03/20 06:23:54;;;;;;;;;;;;;;;1.83;56.03;103765.28;1700877;83;20232;-71
2022/03/20 06:26:21;;;;;;;;;;;;;;;2.12;55.89;103774.94;1706724;83;20223;-71
2022/03/20 06:28:48;;;;;;;;;;;;;;;2.39;55.78;103775.95;1706650;83;20183;-71
2022/03/20 06:31:16;;;;;;;;;;;;;;;2.64;55.86;103767.85;1695928;83;20175;-71
2022/03/20 06:33:47;;;;;;;;;;;;;;;2.93;55.79;103774.90;1701063;83;20371;-71
2022/03/20 06:36:11;;;;;;;;;;;;;;;3.21;55.63;103777.55;1706946;83;20200;-71
2022/03/20 06:38:37;;;;;;;;;;;;;;;3.41;55.54;103775.00;1715549;82;20182;-71
2022/03/20 06:41:04;;;;;;;;;;;;;;;3.61;55.65;103784.44;1711325;83;20621;-71
2022/03/20 06:43:31;;;;;;;;;;;;;;;3.81;55.69;103783.10;1713235;82;20206;-71
2022/03/20 06:45:57;;;;;;;;;;;;;;;4.07;55.64;103787.28;1711352;82;20154;-71
2022/03/20 06:48:24;;;;;;;;;;;;;;;4.29;55.61;103790.72;1712110;82;20158;-71
2022/03/20 06:50:50;;;;;;;;;;;;;;;4.47;55.60;103798.24;1669412;85;20209;-71
2022/03/20 06:53:18;;;;;;;;;;;;;;;4.56;55.36;103803.03;1710857;83;20127;-71
2022/03/20 06:55:45;;;;;;;;;;;;;;;4.57;55.37;103803.13;1699182;83;20131;-72
2022/03/20 06:58:11;;;;;;;;;;;;;;;4.71;55.44;103800.06;1710024;82;20133;-71
2022/03/20 07:00:38;;;;;;;;;;;;;;;4.85;55.45;103806.89;1712300;83;20099;-72
2022/03/20 07:03:06;;;;;;;;;;;;;;;4.99;55.51;103804.73;1713626;83;20095;-71
2022/03/20 07:05:36;;;;;;;;;;;;;;;5.19;55.50;103808.45;1703216;83;20201;-72
2022/03/20 07:08:04;;;;;;;;;;;;;;;5.51;55.61;103808.96;1708982;82;20251;-72
2022/03/20 07:10:30;;;;;;;;;;;;;;;5.95;55.76;103809.25;1702076;82;20215;-71
2022/03/20 07:15:24;;;;;;;;;;;;;;;6.56;55.10;103806.04;1692820;82;20205;-71
2022/03/20 07:17:50;;;;;;;;;;;;;;;6.50;54.71;103805.72;1714429;82;20205;-71
2022/03/20 07:20:16;;;;;;;;;;;;;;;6.31;54.83;103811.19;1704272;83;20178;-72
2022/03/20 07:22:43;;;;;;;;;;;;;;;6.22;54.94;103800.45;1699532;83;20210;-72
2022/03/20 07:30:38;;;;;;;;;;;;;;;6.56;55.11;103791.50;1699945;83;20182;-72
2022/03/20 07:33:04;;;;;;;;;;;;;;;6.79;55.00;103786.20;1698014;82;20172;-72
2022/03/20 07:35:30;;;;;;;;;;;;;;;7.00;54.96;103782.54;1708260;83;20713;-71
2022/03/20 07:37:56;;;;;;;;;;;;;;;7.22;54.79;103781.91;1715009;82;20497;-72
2022/03/20 07:40:22;;;;;;;;;;;;;;;7.34;54.83;103782.87;1706789;82;20204;-72
2022/03/20 07:42:48;;;;;;;;;;;;;;;7.54;54.91;103779.55;1713492;83;20202;-73
2022/03/20 07:45:24;;;;;;;;;;;;;;;7.69;54.89;103775.13;1707292;82;20438;-72
2022/03/20 07:47:49;;;;;;;;;;;;;;;7.87;54.64;103773.36;1706648;83;20219;-72
2022/03/20 07:50:15;;;;;;;;;;;;;;;8.01;54.50;103771.82;1707295;82;20229;-72
2022/03/20 07:52:41;;;;;;;;;;;;;;;8.18;54.83;103778.21;1699937;82;20199;-72
2022/03/20 07:55:08;;;;;;;;;;;;;;;8.27;54.76;103776.04;1693873;83;20661;-72
2022/03/20 07:57:41;;;;;;;;;;;;;;;8.28;54.75;103777.80;1677972;83;20189;-72
2022/03/20 08:00:09;;;;;;;;;;;;;;;8.42;54.72;103771.08;1708865;82;20487;-73
2022/03/20 08:02:34;;;;;;;;;;;;;;;8.69;54.49;103777.84;1719653;82;20192;-71
2022/03/20 08:05:03;;;;;;;;;;;;;;;8.93;54.39;103781.42;1692407;83;20428;-72
2022/03/20 08:07:30;;;;;;;;;;;;;;;9.17;54.64;103778.97;1709762;82;20454;-71
2022/03/20 08:09:56;;;;;;;;;;;;;;;9.27;54.65;103786.27;1724654;82;20199;-71
2022/03/20 08:12:24;;;;;;;;;;;;;;;9.21;55.18;103774.39;1670823;84;20196;-71
2022/03/20 08:14:49;;;;;;;;;;;;;;;9.17;54.82;103773.80;1715394;83;20186;-71
2022/03/20 08:17:17;;;;;;;;;;;;;;;9.15;54.22;103772.45;1703379;82;20327;-71
2022/03/20 08:19:42;;;;;;;;;;;;;;;9.09;54.55;103784.22;1698626;82;20209;-71
2022/03/20 08:22:08;;;;;;;;;;;;;;;9.06;53.97;103784.98;1693400;83;20177;-71
2022/03/20 08:24:34;;;;;;;;;;;;;;;9.09;53.88;103775.19;1686943;83;21342;-71
2022/03/20 08:26:59;;;;;;;;;;;;;;;9.08;53.74;103776.89;1682001;84;20256;-71
2022/03/20 08:29:26;;;;;;;;;;;;;;;9.11;53.46;103776.13;1693897;83;20676;-71
2022/03/20 08:31:54;;;;;;;;;;;;;;;9.18;53.12;103771.28;1692361;82;20209;-71
2022/03/20 08:34:19;;;;;;;;;;;;;;;9.21;53.17;103779.15;1710612;81;20202;-71
2022/03/20 08:36:47;;;;;;;;;;;;;;;9.15;53.00;103776.32;1710806;82;20175;-71
2022/03/20 08:39:13;;;;;;;;;;;;;;;9.13;53.08;103774.49;1695589;83;20133;-71
2022/03/20 08:41:40;;;;;;;;;;;;;;;9.11;53.26;103766.69;1683518;83;20098;-71
2022/03/20 08:44:08;;;;;;;;;;;;;;;9.07;52.71;103762.63;1683904;84;20130;-71
2022/03/20 08:46:34;;;;;;;;;;;;;;;9.07;52.83;103767.38;1693253;83;20093;-71
2022/03/20 08:49:05;;;;;;;;;;;;;;;9.07;52.25;103761.34;1724125;82;20095;-71
2022/03/20 08:51:31;;;;;;;;;;;;;;;9.02;51.94;103768.02;1712121;83;20135;-71
2022/03/20 08:53:58;;;;;;;;;;;;;;;8.91;51.11;103767.56;1702222;82;20129;-71
2022/03/20 08:56:24;;;;;;;;;;;;;;;8.77;51.58;103764.85;1694977;83;20309;-71
2022/03/20 08:58:51;;;;;;;;;;;;;;;8.63;51.74;103755.24;1682566;83;20583;-71
2022/03/20 09:01:17;;;;;;;;;;;;;;;8.50;50.71;103752.55;1686993;83;20182;-71
2022/03/20 09:03:49;;;;;;;;;;;;;;;8.38;51.17;103747.27;1710519;83;20147;-71
2022/03/20 09:06:15;;;;;;;;;;;;;;;8.37;50.77;103741.64;1703342;82;20121;-71
2022/03/20 09:08:41;;;;;;;;;;;;;;;8.35;50.94;103741.57;1684738;82;20173;-71
2022/03/20 09:11:07;;;;;;;;;;;;;;;8.32;50.83;103740.11;1694979;83;20668;-71
2022/03/20 09:13:32;;;;;;;;;;;;;;;8.29;50.60;103745.17;1684479;83;20160;-71
2022/03/20 09:19:00;;;;;;;;;;;;;;;8.22;50.00;103742.73;1683887;83;20220;-71
2022/03/20 09:21:30;;;;;;;;;;;;;;;8.23;49.95;103737.17;1710106;83;20187;-72
2022/03/20 09:23:58;;;;;;;;;;;;;;;8.14;49.46;103740.63;1711257;83;20195;-71
2022/03/20 09:26:24;;;;;;;;;;;;;;;8.11;49.14;103740.09;1714156;82;20248;-71
2022/03/20 09:28:51;;;;;;;;;;;;;;;8.15;49.88;103731.67;1705324;82;20173;-72
2022/03/20 09:31:19;;;;;;;;;;;;;;;8.21;49.58;103736.22;1715858;83;20256;-71
2022/03/20 09:33:45;;;;;;;;;;;;;;;8.27;48.95;103736.48;1713072;83;20182;-72
2022/03/20 09:36:13;;;;;;;;;;;;;;;8.29;48.34;103754.20;1696572;82;20207;-71
2022/03/20 09:38:39;;;;;;;;;;;;;;;8.26;49.05;103731.73;1699904;83;20210;-71
2022/03/20 09:41:11;;;;;;;;;;;;;;;8.32;48.94;103736.69;1712130;82;20230;-72
2022/03/20 09:43:42;;;;;;;;;;;;;;;8.35;48.42;103733.84;1708569;82;20183;-73
2022/03/20 09:46:15;;;;;;;;;;;;;;;8.37;48.43;103737.77;1689366;83;20256;-73
2022/03/20 09:48:42;;;;;;;;;;;;;;;8.34;47.85;103742.39;1708990;82;20324;-73
2022/03/20 09:51:09;;;;;;;;;;;;;;;8.35;47.85;103740.69;1712222;82;20175;-73
2022/03/20 09:53:35;;;;;;;;;;;;;;;8.36;47.92;103734.31;1713204;82;20170;-73
2022/03/20 09:56:05;;;;;;;;;;;;;;;8.41;47.71;103731.93;1708432;82;20543;-73
2022/03/20 09:58:30;;;;;;;;;;;;;;;8.50;47.29;103725.88;1714735;82;20415;-73
2022/03/20 10:00:56;;;;;;;;;;;;;;;8.54;45.60;103734.22;1673600;84;20181;-73
2022/03/20 10:03:24;;;;;;;;;;;;;;;8.59;46.71;103732.72;1621867;87;20165;-73
2022/03/20 10:06:06;;;;;;;;;;;;;;;8.59;46.83;103721.98;1654828;86;20137;-73
2022/03/20 10:08:32;;;;;;;;;;;;;;;8.60;45.64;103719.88;1653570;85;20220;-73
2022/03/20 10:11:18;;;;;;;;;;;;;;;8.62;46.05;103718.66;1537883;85;10000783;-73
2022/03/20 10:14:16;;;;;;;;;;;;;;;8.63;45.84;103721.70;1713364;83;20123;-73
2022/03/20 10:16:50;;;;;;;;;;;;;;;8.65;45.74;103711.45;1668706;84;20426;-73
2022/03/20 10:19:26;;;;;;;;;;;;;;;8.73;45.50;103710.08;1712746;82;20206;-73
2022/03/20 10:21:55;;;;;;;;;;;;;;;8.77;45.26;103708.09;1668142;84;20482;-73
2022/03/20 10:24:23;;;;;;;;;;;;;;;8.83;45.28;103698.91;1715359;82;20163;-72
2022/03/20 10:27:01;;;;;;;;;;;;;;;8.91;45.40;103708.21;1694668;82;20355;-72
2022/03/20 10:29:29;;;;;;;;;;;;;;;8.98;44.61;103701.60;1573028;83;10000949;-72
2022/03/20 10:31:58;;;;;;;;;;;;;;;9.06;45.36;103703.67;1654196;83;20511;-73
2022/03/20 10:34:23;;;;;;;;;;;;;;;9.12;44.85;103703.91;1685816;83;421055;-72
2022/03/20 10:36:50;;;;;;;;;;;;;;;9.12;44.51;103704.32;1689646;83;20156;-72
2022/03/20 10:39:19;;;;;;;;;;;;;;;9.10;44.84;103690.47;1683170;83;20455;-73
2022/03/20 10:41:47;;;;;;;;;;;;;;;9.11;44.52;103690.53;1687697;83;20105;-72
2022/03/20 10:44:16;;;;;;;;;;;;;;;9.16;44.83;103692.00;1688710;83;20152;-72
2022/03/20 10:46:43;;;;;;;;;;;;;;;9.21;44.84;103693.06;1688996;83;20335;-72
2022/03/20 10:49:11;;;;;;;;;;;;;;;9.24;44.58;103686.32;1669007;83;20219;-72
2022/03/20 10:51:41;;;;;;;;;;;;;;;9.29;44.29;103689.96;1685217;83;20413;-72
2022/03/20 10:54:20;;;;;;;;;;;;;;;9.37;44.34;103687.64;1690041;83;20101;-72
2022/03/20 10:56:57;;;;;;;;;;;;;;;9.44;44.21;103688.34;1671042;84;20085;-72
2022/03/20 10:59:24;;;;;;;;;;;;;;;9.43;43.98;103684.41;1685612;83;20109;-72
2022/03/20 11:01:51;;;;;;;;;;;;;;;9.37;43.47;103683.77;1688872;83;20089;-72
2022/03/20 11:04:19;;;;;;;;;;;;;;;9.33;42.99;103682.33;1670536;83;20129;-72
2022/03/20 11:06:47;;;;;;;;;;;;;;;9.32;43.52;103671.53;1690589;82;20132;-72
2022/03/20 11:09:14;;;;;;;;;;;;;;;9.33;43.21;103681.92;1687390;83;20105;-74
2022/03/20 11:11:45;;;;;;;;;;;;;;;9.35;43.18;103670.36;1685463;83;20112;-73
2022/03/20 11:14:13;;;;;;;;;;;;;;;9.42;41.84;103660.70;1690903;84;20106;-74
2022/03/20 11:16:41;;;;;;;;;;;;;;;9.46;42.65;103662.57;1689939;83;20109;-75
2022/03/20 11:19:12;;;;;;;;;;;;;;;9.54;42.11;103656.87;1687383;84;20143;-75
2022/03/20 11:21:40;;;;;;;;;;;;;;;9.58;42.98;103650.99;1686111;84;20103;-74
2022/03/20 11:24:06;;;;;;;;;;;;;;;9.63;42.54;103648.58;1684430;83;20113;-74
2022/03/20 11:26:34;;;;;;;;;;;;;;;9.65;42.67;103649.52;1694227;82;20190;-74
2022/03/20 11:29:01;;;;;;;;;;;;;;;9.70;42.41;103642.81;1702375;82;20148;-74
2022/03/20 11:31:31;;;;;;;;;;;;;;;9.81;42.64;103649.66;1701423;83;20106;-74
2022/03/20 11:33:57;;;;;;;;;;;;;;;9.87;42.21;103645.59;1703212;83;20107;-74
2022/03/20 11:36:23;;;;;;;;;;;;;;;10.00;41.73;103640.81;1711738;83;20124;-74
2022/03/20 11:39:12;;;;;;;;;;;;;;;10.08;42.13;103639.38;1697286;83;38560;-74
2022/03/20 11:41:38;;;;;;;;;;;;;;;10.14;42.02;103639.17;1711247;82;20615;-74
2022/03/20 11:44:20;;;;;;;;;;;;;;;10.14;42.39;103637.88;1711954;83;20083;-75
2022/03/20 11:46:44;;;;;;;;;;;;;;;10.12;41.90;103630.48;1711462;82;20116;-75
2022/03/20 11:49:22;;;;;;;;;;;;;;;10.19;42.28;103631.58;1714781;82;20221;-75
2022/03/20 11:52:06;;;;;;;;;;;;;;;10.25;42.17;103618.89;1708656;83;20120;-75
2022/03/20 11:54:41;;;;;;;;;;;;;;;10.31;42.06;103629.44;1708423;82;20127;-75
2022/03/20 11:57:31;;;;;;;;;;;;;;;10.32;41.35;103625.14;1671817;85;20154;-75
2022/03/20 12:00:11;;;;;;;;;;;;;;;10.32;41.26;103622.56;1666280;85;20178;-74
2022/03/20 12:02:50;;;;;;;;;;;;;;;10.30;41.37;103619.04;1669933;85;20159;-74
2022/03/20 12:05:19;;;;;;;;;;;;;;;10.24;40.88;103626.18;1668615;85;20205;-74
2022/03/20 12:08:01;;;;;;;;;;;;;;;10.17;40.12;103611.25;1663021;85;20396;-74
2022/03/20 12:10:46;;;;;;;;;;;;;;;10.17;40.39;103604.78;1670497;85;20145;-74
2022/03/20 12:13:38;;;;;;;;;;;;;;;10.15;40.42;103602.56;1669714;85;20179;-74
2022/03/20 12:16:04;;;;;;;;;;;;;;;10.15;40.70;103603.86;1661802;85;20502;-74
2022/03/20 12:18:36;;;;;;;;;;;;;;;10.19;40.54;103593.70;1639544;87;20326;-74
2022/03/20 12:21:02;;;;;;;;;;;;;;;10.27;40.79;103591.37;1647129;86;20465;-75
2022/03/20 12:23:43;;;;;;;;;;;;;;;10.31;40.67;103588.05;1637418;86;20111;-74
2022/03/20 12:26:41;;;;;;;;;;;;;;;10.33;40.20;103592.86;1657431;85;20207;-74
2022/03/20 12:29:34;;;;;;;;;;;;;;;10.32;39.86;103585.05;1662295;85;20136;-75
2022/03/20 12:32:12;;;;;;;;;;;;;;;10.36;40.37;103574.86;1659782;86;20208;-75
2022/03/20 12:34:40;;;;;;;;;;;;;;;10.43;40.21;103573.31;1661706;86;20472;-75
2022/03/20 12:37:33;;;;;;;;;;;;;;;10.46;39.67;103577.30;1654155;85;20186;-75
2022/03/20 12:40:19;;;;;;;;;;;;;;;10.47;40.07;103567.41;1656918;86;20204;-74
2022/03/20 12:42:57;;;;;;;;;;;;;;;10.47;39.84;103560.94;1658476;85;20506;-74
2022/03/20 12:45:26;;;;;;;;;;;;;;;10.48;39.45;103560.99;1657468;86;20156;-75
2022/03/20 12:47:57;;;;;;;;;;;;;;;10.50;38.57;103562.33;1664261;85;20186;-74
2022/03/20 12:50:26;;;;;;;;;;;;;;;10.49;39.40;103565.34;1673829;85;20105;-75
2022/03/20 12:52:54;;;;;;;;;;;;;;;10.55;38.85;103558.19;1673171;85;20132;-75
2022/03/20 12:55:24;;;;;;;;;;;;;;;10.55;39.50;103560.36;1669555;85;20131;-75
2022/03/20 12:57:50;;;;;;;;;;;;;;;10.57;39.72;103541.87;1656482;84;20163;-75
2022/03/20 13:00:21;;;;;;;;;;;;;;;10.60;39.09;103541.97;1669814;85;20132;-75
2022/03/20 13:03:00;;;;;;;;;;;;;;;10.60;39.41;103535.91;1643129;87;20108;-75
2022/03/20 13:05:28;;;;;;;;;;;;;;;10.63;39.36;103537.72;1646293;86;20096;-75
2022/03/20 13:07:56;;;;;;;;;;;;;;;10.66;39.29;103539.98;1676665;84;20108;-74
2022/03/20 13:10:28;;;;;;;;;;;;;;;10.66;39.21;103521.87;1658837;85;20720;-74
2022/03/20 13:13:03;;;;;;;;;;;;;;;10.66;38.79;103523.16;1638441;85;20100;-75
2022/03/20 13:15:37;;;;;;;;;;;;;;;10.73;39.26;103521.64;1673669;84;20101;-75
2022/03/20 13:18:05;;;;;;;;;;;;;;;10.79;38.82;103520.11;1676336;84;20113;-75
2022/03/20 13:20:33;;;;;;;;;;;;;;;10.78;38.77;103508.42;1674836;85;20121;-75
2022/03/20 13:23:06;;;;;;;;;;;;;;;10.79;39.08;103507.17;1670985;85;20121;-75